Time;durP1;ratioP1;P1;durP2;ratioP2;P2;SDS_P1;SDS_P2;PMS_P1;PMS_P2;Temp;Humidity;BMP_temperature;BMP_pressure;BME280_temperature;BME280_humidity;BME280_pressure;Samples;Min_cycle;Max_cycle;Signal;HPM_P1;HPM_P2
2024/01/08 00:00:40;;;;;;;3.87;3.57;;;;;;;;;;6303943;28;20613;-70
2024/01/08 00:03:44;;;;;;;4.10;3.90;;;;;;;;;;6307352;28;20282;-70
2024/01/08 00:06:49;;;;;;;4.03;3.73;;;;;;;;;;6309214;28;20297;-72
2024/01/08 00:09:53;;;;;;;3.57;3.47;;;;;;;;;;6308397;28;20292;-71
2024/01/08 00:12:57;;;;;;;4.20;3.83;;;;;;;;;;6305993;28;20301;-71
2024/01/08 00:16:02;;;;;;;5.10;3.90;;;;;;;;;;6286034;28;20291;-71
2024/01/08 00:19:06;;;;;;;3.90;3.60;;;;;;;;;;6310586;28;20309;-71
2024/01/08 00:22:10;;;;;;;3.83;3.60;;;;;;;;;;6313422;28;20312;-71
2024/01/08 00:25:16;;;;;;;3.13;2.93;;;;;;;;;;6310773;28;20293;-71
2024/01/08 00:28:19;;;;;;;3.40;3.20;;;;;;;;;;6313106;28;20285;-70
2024/01/08 00:31:24;;;;;;;3.33;3.13;;;;;;;;;;6313273;28;20298;-70
2024/01/08 00:34:28;;;;;;;3.17;2.97;;;;;;;;;;6311674;28;20297;-71
2024/01/08 00:37:35;;;;;;;2.90;2.80;;;;;;;;;;6312901;28;20243;-71
2024/01/08 00:40:39;;;;;;;3.13;2.87;;;;;;;;;;6312469;28;20305;-70
2024/01/08 00:43:42;;;;;;;3.10;3.00;;;;;;;;;;6311932;28;20290;-71
2024/01/08 00:46:48;;;;;;;2.93;2.83;;;;;;;;;;6312552;28;20290;-70
2024/01/08 00:49:52;;;;;;;2.77;2.60;;;;;;;;;;6311871;28;20298;-72
2024/01/08 00:52:56;;;;;;;3.10;3.00;;;;;;;;;;6309967;28;20464;-69
2024/01/08 00:56:00;;;;;;;3.03;2.83;;;;;;;;;;6312093;28;20308;-71
2024/01/08 00:59:03;;;;;;;2.90;2.80;;;;;;;;;;6309901;28;20302;-71
2024/01/08 01:02:09;;;;;;;3.00;2.90;;;;;;;;;;6312525;28;20301;-71
2024/01/08 01:05:13;;;;;;;2.90;2.70;;;;;;;;;;6311738;28;20493;-71
2024/01/08 01:08:17;;;;;;;2.33;2.33;;;;;;;;;;6311581;28;20313;-71
2024/01/08 01:11:21;;;;;;;3.00;2.90;;;;;;;;;;6310635;28;20590;-71
2024/01/08 01:14:25;;;;;;;2.83;2.63;;;;;;;;;;6296448;28;20505;-70
2024/01/08 01:17:30;;;;;;;2.43;2.43;;;;;;;;;;6295418;28;20303;-70
2024/01/08 01:20:34;;;;;;;2.80;2.70;;;;;;;;;;6311423;28;20286;-70
2024/01/08 01:23:38;;;;;;;2.53;2.43;;;;;;;;;;6311273;28;20566;-70
2024/01/08 01:26:42;;;;;;;2.50;2.40;;;;;;;;;;6311839;28;20356;-70
2024/01/08 01:29:46;;;;;;;2.30;2.20;;;;;;;;;;6311235;28;20299;-70
2024/01/08 01:32:51;;;;;;;2.63;2.40;;;;;;;;;;6309554;28;20408;-71
2024/01/08 01:35:55;;;;;;;2.87;2.00;;;;;;;;;;6311579;28;20293;-70
2024/01/08 01:38:59;;;;;;;2.40;2.30;;;;;;;;;;6311005;28;20303;-71
2024/01/08 01:42:03;;;;;;;2.47;2.30;;;;;;;;;;6311380;28;20324;-71
2024/01/08 01:45:09;;;;;;;2.57;2.47;;;;;;;;;;6310793;28;20373;-71
2024/01/08 01:48:14;;;;;;;2.47;2.03;;;;;;;;;;6310962;28;20302;-71
2024/01/08 01:51:18;;;;;;;2.80;2.43;;;;;;;;;;6310761;28;20298;-71
2024/01/08 01:54:24;;;;;;;2.10;2.10;;;;;;;;;;6310672;28;20302;-72
2024/01/08 01:57:27;;;;;;;3.00;2.70;;;;;;;;;;6310751;28;20294;-71
2024/01/08 02:00:32;;;;;;;2.40;2.30;;;;;;;;;;6308712;28;20421;-71
2024/01/08 02:03:37;;;;;;;2.57;2.47;;;;;;;;;;6309882;28;20294;-72
2024/01/08 02:06:42;;;;;;;2.63;2.60;;;;;;;;;;6310764;28;20305;-71
2024/01/08 02:09:46;;;;;;;2.30;2.30;;;;;;;;;;6310384;28;20286;-71
2024/01/08 02:12:50;;;;;;;2.53;2.43;;;;;;;;;;6308330;28;20302;-71
2024/01/08 02:15:54;;;;;;;3.40;2.53;;;;;;;;;;6285811;28;20294;-71
2024/01/08 02:19:00;;;;;;;2.27;2.20;;;;;;;;;;6306404;28;20585;-71
2024/01/08 02:22:04;;;;;;;2.30;2.30;;;;;;;;;;6310419;28;20319;-71
2024/01/08 02:25:10;;;;;;;2.50;2.50;;;;;;;;;;6309820;28;20295;-71
2024/01/08 02:28:14;;;;;;;2.30;2.20;;;;;;;;;;6309552;28;20281;-71
2024/01/08 02:31:20;;;;;;;2.33;2.27;;;;;;;;;;6310168;28;20302;-71
2024/01/08 02:34:25;;;;;;;2.67;2.37;;;;;;;;;;6309291;28;20297;-71
2024/01/08 02:37:29;;;;;;;2.50;2.50;;;;;;;;;;6309004;28;20266;-71
2024/01/08 02:40:35;;;;;;;2.40;2.30;;;;;;;;;;6309645;28;20293;-71
2024/01/08 02:43:39;;;;;;;2.30;2.20;;;;;;;;;;6309423;28;20294;-71
2024/01/08 02:46:43;;;;;;;2.17;2.17;;;;;;;;;;6309519;28;20235;-71
2024/01/08 02:49:47;;;;;;;2.60;2.40;;;;;;;;;;6309477;28;20309;-71
2024/01/08 02:52:51;;;;;;;2.10;2.10;;;;;;;;;;6309324;28;20294;-71
2024/01/08 02:55:56;;;;;;;2.00;1.83;;;;;;;;;;6309526;28;20286;-71
2024/01/08 02:59:05;;;;;;;2.00;1.90;;;;;;;;;;6309038;28;20465;-71
2024/01/08 03:02:09;;;;;;;2.60;2.50;;;;;;;;;;6310226;28;20306;-71
2024/01/08 03:05:13;;;;;;;1.90;1.90;;;;;;;;;;6309678;28;20294;-71
2024/01/08 03:08:17;;;;;;;2.10;2.10;;;;;;;;;;6309214;28;20287;-70
2024/01/08 03:11:23;;;;;;;2.17;2.10;;;;;;;;;;6309136;28;20301;-70
2024/01/08 03:14:27;;;;;;;2.30;2.20;;;;;;;;;;6292284;28;20318;-70
2024/01/08 03:17:31;;;;;;;2.10;2.10;;;;;;;;;;6293630;28;20309;-70
2024/01/08 03:20:35;;;;;;;2.23;2.23;;;;;;;;;;6307268;28;20312;-70
2024/01/08 03:23:40;;;;;;;2.07;2.07;;;;;;;;;;6309020;28;20299;-71
2024/01/08 03:26:45;;;;;;;2.30;2.30;;;;;;;;;;6309551;28;20286;-71
2024/01/08 03:29:49;;;;;;;2.17;2.10;;;;;;;;;;6308982;28;20316;-70
2024/01/08 03:32:54;;;;;;;2.23;2.23;;;;;;;;;;6308866;28;20626;-71
2024/01/08 03:35:59;;;;;;;1.93;1.90;;;;;;;;;;6308947;28;20472;-71
2024/01/08 03:39:03;;;;;;;1.97;1.97;;;;;;;;;;6308684;28;20290;-70
2024/01/08 03:42:09;;;;;;;1.73;1.73;;;;;;;;;;6309182;28;20369;-70
2024/01/08 03:45:13;;;;;;;1.80;1.80;;;;;;;;;;6308920;28;20291;-70
2024/01/08 03:48:17;;;;;;;2.00;1.93;;;;;;;;;;6308822;28;20290;-71
2024/01/08 03:51:21;;;;;;;1.80;1.80;;;;;;;;;;6312071;28;20471;-70
2024/01/08 03:54:25;;;;;;;1.70;1.70;;;;;;;;;;6313575;28;20318;-70
2024/01/08 03:57:30;;;;;;;1.90;1.90;;;;;;;;;;6313976;28;20298;-70
2024/01/08 04:00:35;;;;;;;2.10;2.03;;;;;;;;;;6313611;28;20358;-70
2024/01/08 04:03:39;;;;;;;1.70;1.70;;;;;;;;;;6302739;28;20291;-71
2024/01/08 04:06:43;;;;;;;3.13;1.90;;;;;;;;;;6288779;28;20311;-70
2024/01/08 04:09:47;;;;;;;2.20;2.10;;;;;;;;;;6308005;28;20305;-71
2024/01/08 04:12:53;;;;;;;1.73;1.70;;;;;;;;;;6292998;28;20297;-70
2024/01/08 04:15:56;;;;;;;1.80;1.80;;;;;;;;;;6288404;28;20295;-70
2024/01/08 04:19:00;;;;;;;2.00;2.00;;;;;;;;;;6309533;28;20425;-70
2024/01/08 04:22:05;;;;;;;1.93;1.90;;;;;;;;;;6313440;28;20294;-70
2024/01/08 04:25:09;;;;;;;1.50;1.50;;;;;;;;;;6312369;28;20294;-70
2024/01/08 04:28:14;;;;;;;2.10;2.00;;;;;;;;;;6312401;28;20440;-70
2024/01/08 04:31:19;;;;;;;1.87;1.87;;;;;;;;;;6313140;28;20361;-70
2024/01/08 04:34:24;;;;;;;2.00;1.90;;;;;;;;;;6312431;28;20309;-70
2024/01/08 04:37:28;;;;;;;1.70;1.70;;;;;;;;;;6311245;28;20274;-70
2024/01/08 04:40:31;;;;;;;1.73;1.73;;;;;;;;;;6312810;28;20251;-70
2024/01/08 04:43:37;;;;;;;1.80;1.80;;;;;;;;;;6301341;28;20294;-70
2024/01/08 04:46:42;;;;;;;1.60;1.60;;;;;;;;;;6287655;28;20251;-71
2024/01/08 04:49:46;;;;;;;1.80;1.80;;;;;;;;;;6287565;28;20291;-70
2024/01/08 04:52:50;;;;;;;1.70;1.70;;;;;;;;;;6286448;28;20480;-70
2024/01/08 04:55:54;;;;;;;2.00;1.90;;;;;;;;;;6287355;28;20289;-70
2024/01/08 04:59:00;;;;;;;2.10;2.00;;;;;;;;;;6291784;28;20290;-70
2024/01/08 05:02:04;;;;;;;1.77;1.67;;;;;;;;;;6312674;28;20487;-70
2024/01/08 05:05:08;;;;;;;1.93;1.93;;;;;;;;;;6312235;28;20302;-70
2024/01/08 05:08:12;;;;;;;1.87;1.73;;;;;;;;;;6311741;28;20290;-70
2024/01/08 05:11:16;;;;;;;1.80;1.70;;;;;;;;;;6312040;28;20326;-70
2024/01/08 05:14:21;;;;;;;1.67;1.67;;;;;;;;;;6294825;28;20298;-70
2024/01/08 05:17:25;;;;;;;1.73;1.73;;;;;;;;;;6294953;28;20298;-71
2024/01/08 05:20:30;;;;;;;1.83;1.80;;;;;;;;;;6312269;28;20290;-70
2024/01/08 05:23:34;;;;;;;1.40;1.40;;;;;;;;;;6311359;28;20299;-71
2024/01/08 05:26:38;;;;;;;1.80;1.80;;;;;;;;;;6311814;28;20746;-70
2024/01/08 05:29:43;;;;;;;1.53;1.53;;;;;;;;;;6311297;28;20366;-71
2024/01/08 05:32:50;;;;;;;1.60;1.60;;;;;;;;;;6310894;28;20466;-71
2024/01/08 05:35:54;;;;;;;1.70;1.70;;;;;;;;;;6311364;28;20329;-71
2024/01/08 05:38:59;;;;;;;1.60;1.60;;;;;;;;;;6309291;28;20595;-70
2024/01/08 05:42:03;;;;;;;1.80;1.80;;;;;;;;;;6311360;28;20294;-70
2024/01/08 05:45:12;;;;;;;1.70;1.70;;;;;;;;;;6310476;28;20290;-71
2024/01/08 05:48:16;;;;;;;2.00;1.90;;;;;;;;;;6310347;28;20309;-71
2024/01/08 05:51:20;;;;;;;2.07;2.07;;;;;;;;;;6310840;28;20296;-70
2024/01/08 05:54:24;;;;;;;1.50;1.50;;;;;;;;;;6310370;28;20571;-71
2024/01/08 05:57:27;;;;;;;1.90;1.90;;;;;;;;;;6310284;28;20289;-70
2024/01/08 06:00:33;;;;;;;1.80;1.80;;;;;;;;;;6309149;28;20591;-70
2024/01/08 06:03:37;;;;;;;2.03;1.90;;;;;;;;;;6309510;28;20317;-70
2024/01/08 06:06:42;;;;;;;1.90;1.90;;;;;;;;;;6310774;28;20552;-70
2024/01/08 06:09:46;;;;;;;1.83;1.83;;;;;;;;;;6309962;28;20289;-69
2024/01/08 06:12:50;;;;;;;1.53;1.50;;;;;;;;;;6305485;28;20286;-69
2024/01/08 06:15:56;;;;;;;1.67;1.67;;;;;;;;;;6284893;28;20294;-69
2024/01/08 06:19:00;;;;;;;1.90;1.90;;;;;;;;;;6306733;28;20474;-70
2024/01/08 06:22:04;;;;;;;1.90;1.90;;;;;;;;;;6310513;28;20337;-68
2024/01/08 06:25:09;;;;;;;1.90;1.90;;;;;;;;;;6309797;28;20293;-69
2024/01/08 06:28:13;;;;;;;2.00;2.00;;;;;;;;;;6309421;28;20622;-70
2024/01/08 06:31:18;;;;;;;2.30;2.20;;;;;;;;;;6310702;28;20478;-70
2024/01/08 06:34:22;;;;;;;2.00;2.00;;;;;;;;;;6309541;28;20356;-70
2024/01/08 06:37:27;;;;;;;1.80;1.70;;;;;;;;;;6308249;28;20279;-71
2024/01/08 06:40:31;;;;;;;2.20;2.10;;;;;;;;;;6309924;28;20230;-70
2024/01/08 06:43:35;;;;;;;2.00;1.90;;;;;;;;;;6309408;28;20293;-72
2024/01/08 06:46:40;;;;;;;2.07;1.90;;;;;;;;;;6310188;28;20246;-70
2024/01/08 06:49:44;;;;;;;2.10;2.00;;;;;;;;;;6309478;28;20357;-74
2024/01/08 06:52:48;;;;;;;1.90;1.90;;;;;;;;;;6307294;28;20287;-72
2024/01/08 06:55:52;;;;;;;2.20;2.10;;;;;;;;;;6309682;28;20294;-72
2024/01/08 06:58:56;;;;;;;1.90;1.90;;;;;;;;;;6309268;28;20299;-73
2024/01/08 07:02:02;;;;;;;2.00;1.90;;;;;;;;;;6310168;28;20420;-73
2024/01/08 07:05:07;;;;;;;2.10;2.10;;;;;;;;;;6309372;28;20295;-73
2024/01/08 07:08:11;;;;;;;2.10;2.10;;;;;;;;;;6309353;28;20301;-73
2024/01/08 07:11:21;;;;;;;2.13;2.03;;;;;;;;;;6309667;28;20293;-72
2024/01/08 07:14:24;;;;;;;2.27;2.20;;;;;;;;;;6291553;28;20599;-74
2024/01/08 07:17:30;;;;;;;1.93;1.93;;;;;;;;;;6292887;28;20311;-75
2024/01/08 07:20:35;;;;;;;2.10;2.00;;;;;;;;;;6309623;28;20303;-72
2024/01/08 07:23:39;;;;;;;2.10;2.10;;;;;;;;;;6308653;28;20324;-71
2024/01/08 07:26:43;;;;;;;1.93;1.93;;;;;;;;;;6314783;28;20289;-72
2024/01/08 07:29:47;;;;;;;2.40;2.00;;;;;;;;;;6314419;28;20293;-72
2024/01/08 07:32:52;;;;;;;2.40;2.30;;;;;;;;;;6312751;28;20282;-71
2024/01/08 07:35:56;;;;;;;2.43;2.37;;;;;;;;;;6314994;28;20578;-70
2024/01/08 07:39:00;;;;;;;2.43;2.33;;;;;;;;;;6314112;28;20312;-71
2024/01/08 07:42:04;;;;;;;2.07;2.07;;;;;;;;;;6314591;28;20578;-70
2024/01/08 07:45:09;;;;;;;1.90;1.90;;;;;;;;;;6313789;28;20297;-70
2024/01/08 07:48:15;;;;;;;2.30;2.20;;;;;;;;;;6313833;28;20289;-70
2024/01/08 07:51:22;;;;;;;2.03;2.03;;;;;;;;;;6314013;28;20310;-70
2024/01/08 07:54:26;;;;;;;2.00;2.00;;;;;;;;;;6313665;28;20585;-71
2024/01/08 07:57:29;;;;;;;2.40;2.30;;;;;;;;;;6313908;28;20301;-70
2024/01/08 08:00:33;;;;;;;2.60;2.40;;;;;;;;;;6314211;28;20578;-71
2024/01/08 08:03:39;;;;;;;2.47;2.37;;;;;;;;;;6313501;28;20306;-69
2024/01/08 08:06:43;;;;;;;1.80;1.80;;;;;;;;;;6313908;28;20317;-69
2024/01/08 08:09:48;;;;;;;2.50;2.40;;;;;;;;;;6313020;28;20293;-70
2024/01/08 08:12:52;;;;;;;2.83;2.67;;;;;;;;;;6308128;28;20293;-70
2024/01/08 08:15:58;;;;;;;2.37;2.30;;;;;;;;;;6288649;28;20314;-70
2024/01/08 08:19:03;;;;;;;2.00;1.90;;;;;;;;;;6310271;28;20294;-70
2024/01/08 08:22:08;;;;;;;2.27;2.10;;;;;;;;;;6312525;28;20290;-69
2024/01/08 08:25:12;;;;;;;2.10;2.00;;;;;;;;;;6312936;28;20302;-69
2024/01/08 08:28:16;;;;;;;2.40;2.30;;;;;;;;;;6311600;28;20599;-70
2024/01/08 08:31:20;;;;;;;2.20;2.20;;;;;;;;;;6313274;28;20295;-70
2024/01/08 08:34:26;;;;;;;3.73;2.40;;;;;;;;;;6313088;28;20298;-71
2024/01/08 08:37:33;;;;;;;1.87;1.87;;;;;;;;;;6311443;28;20293;-70
2024/01/08 08:40:55;;;;;;;2.53;2.37;;;;;;;;;;6313374;28;20290;-69
2024/01/08 08:43:59;;;;;;;2.07;2.07;;;;;;;;;;6312172;28;20327;-70
2024/01/08 08:47:03;;;;;;;1.80;1.80;;;;;;;;;;6313097;28;20313;-70
2024/01/08 08:50:12;;;;;;;2.10;2.10;;;;;;;;;;6311438;28;20292;-69
2024/01/08 08:53:16;;;;;;;1.83;1.83;;;;;;;;;;6312513;28;20570;-71
2024/01/08 08:56:20;;;;;;;2.37;2.27;;;;;;;;;;6313135;28;20305;-71
2024/01/08 08:59:24;;;;;;;2.10;2.00;;;;;;;;;;6311290;28;20298;-70
2024/01/08 09:02:29;;;;;;;2.07;2.07;;;;;;;;;;6312195;28;20578;-70
2024/01/08 09:05:34;;;;;;;2.57;2.00;;;;;;;;;;6312595;28;20294;-70
2024/01/08 09:08:46;;;;;;;2.10;2.00;;;;;;;;;;6312173;28;20301;-71
2024/01/08 09:11:50;;;;;;;2.30;2.20;;;;;;;;;;6312478;28;20302;-71
2024/01/08 09:14:55;;;;;;;1.87;1.87;;;;;;;;;;6311511;28;20294;-70
2024/01/08 09:18:00;;;;;;;1.97;1.97;;;;;;;;;;6311999;28;20294;-70
2024/01/08 09:21:08;;;;;;;1.93;1.93;;;;;;;;;;6310846;28;20287;-70
2024/01/08 09:24:12;;;;;;;1.83;1.73;;;;;;;;;;6311409;28;20483;-70
2024/01/08 09:27:16;;;;;;;2.20;2.03;;;;;;;;;;6311987;28;20299;-71
2024/01/08 09:30:21;;;;;;;2.30;2.10;;;;;;;;;;6310326;28;20298;-71
2024/01/08 09:33:25;;;;;;;2.03;1.93;;;;;;;;;;6309881;28;20307;-71
2024/01/08 09:36:31;;;;;;;1.70;1.70;;;;;;;;;;6311549;28;20318;-71
2024/01/08 09:39:36;;;;;;;2.40;2.20;;;;;;;;;;6311497;28;20291;-71
2024/01/08 09:42:40;;;;;;;2.00;2.00;;;;;;;;;;6311236;28;20298;-71
2024/01/08 09:45:55;;;;;;;1.80;1.80;;;;;;;;;;6311480;28;20310;-70
2024/01/08 09:49:00;;;;;;;2.20;2.20;;;;;;;;;;6309615;28;20589;-69
2024/01/08 09:52:08;;;;;;;2.13;2.03;;;;;;;;;;6311201;28;20299;-70
2024/01/08 09:55:12;;;;;;;1.90;1.90;;;;;;;;;;6311044;28;20448;-69
2024/01/08 09:58:16;;;;;;;2.13;2.13;;;;;;;;;;6310289;28;20303;-70
2024/01/08 10:01:20;;;;;;;1.93;1.93;;;;;;;;;;6310695;28;20307;-71
2024/01/08 10:04:25;;;;;;;2.17;2.03;;;;;;;;;;6293262;28;20295;-70
2024/01/08 10:07:34;;;;;;;1.90;1.90;;;;;;;;;;6310199;28;20280;-68
2024/01/08 10:10:39;;;;;;;1.90;1.90;;;;;;;;;;6300156;28;20240;-71
2024/01/08 10:13:43;;;;;;;2.10;2.00;;;;;;;;;;6285538;28;20287;-70
2024/01/08 10:16:48;;;;;;;2.20;2.00;;;;;;;;;;6285400;28;20291;-72
2024/01/08 10:20:09;;;;;;;2.03;1.93;;;;;;;;;;6285572;28;20469;-71
2024/01/08 10:23:16;;;;;;;1.80;1.80;;;;;;;;;;6285202;28;20291;-71
2024/01/08 10:26:22;;;;;;;2.07;1.97;;;;;;;;;;6286247;28;20525;-69
2024/01/08 10:29:26;;;;;;;2.10;2.03;;;;;;;;;;6284423;28;20299;-68
2024/01/08 10:32:30;;;;;;;1.80;1.70;;;;;;;;;;6284776;28;20291;-69
2024/01/08 10:35:36;;;;;;;1.83;1.73;;;;;;;;;;6285891;28;20296;-71
2024/01/08 10:38:41;;;;;;;2.10;2.10;;;;;;;;;;6285043;28;20318;-70
2024/01/08 10:41:45;;;;;;;1.80;1.80;;;;;;;;;;6285494;28;20302;-69
2024/01/08 10:44:50;;;;;;;1.83;1.83;;;;;;;;;;6285278;28;20301;-71
2024/01/08 10:48:01;;;;;;;2.50;2.30;;;;;;;;;;6284868;28;20299;-69
2024/01/08 10:51:06;;;;;;;2.20;2.10;;;;;;;;;;6284969;28;20291;-70
2024/01/08 10:54:12;;;;;;;1.80;1.80;;;;;;;;;;6285197;28;20287;-70
2024/01/08 10:57:17;;;;;;;1.90;1.80;;;;;;;;;;6285121;28;20392;-70
2024/01/08 11:00:21;;;;;;;1.77;1.77;;;;;;;;;;6301923;28;20298;-70
2024/01/08 11:03:25;;;;;;;2.00;1.90;;;;;;;;;;6309790;28;20312;-70
2024/01/08 11:06:31;;;;;;;2.17;2.17;;;;;;;;;;6310408;28;20293;-70
2024/01/08 11:09:36;;;;;;;1.57;1.57;;;;;;;;;;6310000;28;20292;-72
2024/01/08 11:12:41;;;;;;;1.90;1.80;;;;;;;;;;6309844;28;20303;-71
2024/01/08 11:15:46;;;;;;;1.83;1.83;;;;;;;;;;6310354;28;20341;-70
2024/01/08 11:18:50;;;;;;;2.00;1.90;;;;;;;;;;6309890;28;20301;-72
2024/01/08 11:21:58;;;;;;;2.07;2.07;;;;;;;;;;6309730;28;20293;-71
2024/01/08 11:25:06;;;;;;;2.07;2.07;;;;;;;;;;6309367;28;20292;-71
2024/01/08 11:28:12;;;;;;;2.60;1.70;;;;;;;;;;6309403;28;20308;-71
2024/01/08 11:31:56;;;;;;;1.57;1.57;;;;;;;;;;6310179;28;20295;-71
2024/01/08 11:35:06;;;;;;;2.50;2.10;;;;;;;;;;6308183;28;20300;-70
2024/01/08 11:38:26;;;;;;;1.90;1.80;;;;;;;;;;6309305;28;20292;-71
2024/01/08 11:41:32;;;;;;;2.10;2.00;;;;;;;;;;6310112;28;20300;-72
2024/01/08 11:44:37;;;;;;;1.90;1.90;;;;;;;;;;6309063;28;20294;-71
2024/01/08 11:47:41;;;;;;;1.60;1.60;;;;;;;;;;6309472;28;20309;-70
2024/01/08 11:50:46;;;;;;;1.90;1.90;;;;;;;;;;6309246;28;20470;-70
2024/01/08 11:53:52;;;;;;;1.80;1.80;;;;;;;;;;6275017;28;20285;-73
2024/01/08 11:56:58;;;;;;;1.80;1.80;;;;;;;;;;6272449;28;20293;-71
2024/01/08 12:00:11;;;;;;;2.00;2.00;;;;;;;;;;6297740;28;20576;-70
2024/01/08 12:03:15;;;;;;;1.50;1.50;;;;;;;;;;6309090;28;20293;-71
2024/01/08 12:06:20;;;;;;;1.90;1.80;;;;;;;;;;6309835;28;20305;-70
2024/01/08 12:09:24;;;;;;;1.80;1.80;;;;;;;;;;6308925;28;20284;-71
2024/01/08 12:12:30;;;;;;;2.07;1.90;;;;;;;;;;6308988;28;20573;-71
2024/01/08 12:15:34;;;;;;;1.70;1.70;;;;;;;;;;6289527;28;20293;-71
2024/01/08 12:18:38;;;;;;;1.50;1.50;;;;;;;;;;6306286;28;20302;-70
2024/01/08 12:21:43;;;;;;;1.60;1.57;;;;;;;;;;6314638;28;20602;-70
2024/01/08 12:24:52;;;;;;;1.80;1.80;;;;;;;;;;6313672;28;20296;-70
2024/01/08 12:28:01;;;;;;;2.20;2.00;;;;;;;;;;6313179;28;20301;-71
2024/01/08 12:31:07;;;;;;;1.80;1.70;;;;;;;;;;6313621;28;20580;-70
2024/01/08 12:34:11;;;;;;;1.77;1.67;;;;;;;;;;6313288;28;20288;-70
2024/01/08 12:37:17;;;;;;;1.80;1.70;;;;;;;;;;6314180;28;20293;-70
2024/01/08 12:40:21;;;;;;;1.73;1.73;;;;;;;;;;6313076;28;20292;-71
2024/01/08 12:43:26;;;;;;;1.73;1.73;;;;;;;;;;6312379;28;20307;-74
2024/01/08 12:46:30;;;;;;;1.63;1.63;;;;;;;;;;6313719;28;20237;-71
2024/01/08 12:49:35;;;;;;;1.80;1.80;;;;;;;;;;6312642;28;20589;-71
2024/01/08 12:52:39;;;;;;;1.60;1.53;;;;;;;;;;6312359;28;20558;-71
2024/01/08 12:55:43;;;;;;;1.60;1.60;;;;;;;;;;6313006;28;20249;-71
2024/01/08 12:58:51;;;;;;;1.97;1.83;;;;;;;;;;6307552;28;20301;-71
2024/01/08 13:01:56;;;;;;;1.73;1.73;;;;;;;;;;6283958;28;20294;-71
2024/01/08 13:05:00;;;;;;;1.73;1.73;;;;;;;;;;6267309;28;20301;-71
2024/01/08 13:08:05;;;;;;;1.83;1.83;;;;;;;;;;6286360;28;20476;-70
2024/01/08 13:11:10;;;;;;;1.80;1.80;;;;;;;;;;6303618;28;20293;-70
2024/01/08 13:14:18;;;;;;;1.77;1.77;;;;;;;;;;6312729;28;20297;-70
2024/01/08 13:17:24;;;;;;;1.63;1.63;;;;;;;;;;6293938;28;20314;-70
2024/01/08 13:20:29;;;;;;;1.90;1.80;;;;;;;;;;6312941;28;20293;-70
2024/01/08 13:23:34;;;;;;;1.93;1.90;;;;;;;;;;6310208;28;20302;-70
2024/01/08 13:26:39;;;;;;;2.10;2.00;;;;;;;;;;6310948;28;20289;-69
2024/01/08 13:29:45;;;;;;;1.90;1.90;;;;;;;;;;6312239;28;20302;-71
2024/01/08 13:32:49;;;;;;;1.73;1.73;;;;;;;;;;6311943;28;20313;-71
2024/01/08 13:35:55;;;;;;;2.10;2.00;;;;;;;;;;6312567;28;20300;-71
2024/01/08 13:38:59;;;;;;;1.83;1.83;;;;;;;;;;6312038;28;20305;-71
2024/01/08 13:42:04;;;;;;;2.03;1.93;;;;;;;;;;6312923;28;20594;-71
2024/01/08 13:45:10;;;;;;;1.90;1.90;;;;;;;;;;6312280;28;20294;-70
2024/01/08 13:48:16;;;;;;;2.07;2.07;;;;;;;;;;6311306;28;20293;-69
2024/01/08 13:51:20;;;;;;;1.80;1.80;;;;;;;;;;6310759;28;20308;-70
2024/01/08 13:54:24;;;;;;;2.10;2.10;;;;;;;;;;6310915;28;20299;-70
2024/01/08 13:57:28;;;;;;;1.93;1.90;;;;;;;;;;6310955;28;20578;-70
2024/01/08 14:00:34;;;;;;;2.77;1.97;;;;;;;;;;6312235;28;20296;-70
2024/01/08 14:03:38;;;;;;;1.73;1.73;;;;;;;;;;6311171;28;20446;-71
2024/01/08 14:06:42;;;;;;;1.50;1.50;;;;;;;;;;6310610;28;20484;-71
2024/01/08 14:09:46;;;;;;;1.93;1.87;;;;;;;;;;6309380;28;20395;-71
2024/01/08 14:12:50;;;;;;;2.00;2.00;;;;;;;;;;6310701;28;20300;-71
2024/01/08 14:15:55;;;;;;;1.80;1.80;;;;;;;;;;6310790;28;20288;-71
2024/01/08 14:18:59;;;;;;;2.97;1.70;;;;;;;;;;6309854;28;20323;-71
2024/01/08 14:22:04;;;;;;;1.60;1.60;;;;;;;;;;6311092;28;20497;-71
2024/01/08 14:25:08;;;;;;;1.80;1.80;;;;;;;;;;6310842;28;20320;-71
2024/01/08 14:28:13;;;;;;;2.00;2.00;;;;;;;;;;6310468;28;20299;-71
2024/01/08 14:31:18;;;;;;;2.00;2.00;;;;;;;;;;6310738;28;20299;-71
2024/01/08 14:34:24;;;;;;;2.00;2.00;;;;;;;;;;6309453;28;20312;-71
2024/01/08 14:37:29;;;;;;;2.00;1.90;;;;;;;;;;6309136;28;20277;-70
2024/01/08 14:40:36;;;;;;;2.10;1.93;;;;;;;;;;6310691;28;20273;-70
2024/01/08 14:43:41;;;;;;;1.53;1.53;;;;;;;;;;6308705;28;20669;-70
2024/01/08 14:46:46;;;;;;;1.70;1.70;;;;;;;;;;6310127;28;20249;-70
2024/01/08 14:49:51;;;;;;;2.10;2.00;;;;;;;;;;6309727;28;20292;-70
2024/01/08 14:52:55;;;;;;;2.00;2.00;;;;;;;;;;6260260;28;20297;-70
2024/01/08 14:56:00;;;;;;;1.90;1.90;;;;;;;;;;6259596;28;20290;-69
2024/01/08 14:59:04;;;;;;;2.20;2.10;;;;;;;;;;6258557;28;20309;-70
2024/01/08 15:02:10;;;;;;;1.67;1.63;;;;;;;;;;6260409;28;20299;-70
2024/01/08 15:05:14;;;;;;;1.90;1.90;;;;;;;;;;6260263;28;20298;-70
2024/01/08 15:08:18;;;;;;;1.73;1.70;;;;;;;;;;6258176;28;20298;-70
2024/01/08 15:11:22;;;;;;;2.73;2.10;;;;;;;;;;6260282;28;20305;-71
2024/01/08 15:14:27;;;;;;;1.90;1.80;;;;;;;;;;6260264;28;20298;-73
2024/01/08 15:17:33;;;;;;;1.70;1.70;;;;;;;;;;6258359;28;20306;-72
2024/01/08 15:20:37;;;;;;;1.93;1.90;;;;;;;;;;6259013;28;20299;-70
2024/01/08 15:23:41;;;;;;;2.00;2.00;;;;;;;;;;6259027;28;20304;-71
2024/01/08 15:26:45;;;;;;;1.70;1.70;;;;;;;;;;6259847;28;20294;-71
2024/01/08 15:29:49;;;;;;;2.10;2.00;;;;;;;;;;6259856;28;20305;-70
2024/01/08 15:32:54;;;;;;;1.90;1.90;;;;;;;;;;6259534;28;20385;-70
2024/01/08 15:35:58;;;;;;;1.60;1.60;;;;;;;;;;6260765;28;20297;-70
2024/01/08 15:39:05;;;;;;;1.70;1.70;;;;;;;;;;6260182;28;20301;-70
2024/01/08 15:42:09;;;;;;;2.30;1.90;;;;;;;;;;6259999;28;20301;-70
2024/01/08 15:45:13;;;;;;;1.90;1.90;;;;;;;;;;6259989;28;20294;-70
2024/01/08 15:48:18;;;;;;;2.50;2.33;;;;;;;;;;6263194;28;20302;-70
2024/01/08 15:51:23;;;;;;;2.00;2.00;;;;;;;;;;6288514;28;20304;-70
2024/01/08 15:54:27;;;;;;;1.73;1.73;;;;;;;;;;6312831;28;20300;-70
2024/01/08 15:57:31;;;;;;;2.17;2.10;;;;;;;;;;6313139;28;20297;-71
2024/01/08 16:00:35;;;;;;;2.07;1.97;;;;;;;;;;6314465;28;20306;-70
2024/01/08 16:03:40;;;;;;;2.17;2.17;;;;;;;;;;6314419;27;20313;-70
2024/01/08 16:06:45;;;;;;;1.77;1.77;;;;;;;;;;6313933;28;20325;-71
2024/01/08 16:09:53;;;;;;;1.90;1.90;;;;;;;;;;6308618;28;20297;-71
2024/01/08 16:12:57;;;;;;;2.40;2.30;;;;;;;;;;6288131;28;20289;-71
2024/01/08 16:16:03;;;;;;;1.90;1.90;;;;;;;;;;6289286;28;20288;-71
2024/01/08 16:19:08;;;;;;;1.87;1.87;;;;;;;;;;6307255;28;20291;-71
2024/01/08 16:22:12;;;;;;;2.33;2.10;;;;;;;;;;6288989;28;20484;-70
2024/01/08 16:25:17;;;;;;;1.90;1.90;;;;;;;;;;6288049;28;20492;-70
2024/01/08 16:28:21;;;;;;;1.90;1.90;;;;;;;;;;6287768;28;20293;-70
2024/01/08 16:31:25;;;;;;;2.33;2.30;;;;;;;;;;6287801;28;20296;-72
2024/01/08 16:34:30;;;;;;;1.97;1.97;;;;;;;;;;6289189;28;20549;-70
2024/01/08 16:37:52;;;;;;;2.13;2.13;;;;;;;;;;6287105;28;20571;-70
2024/01/08 16:40:56;;;;;;;2.30;2.20;;;;;;;;;;6287855;28;20296;-70
2024/01/08 16:44:02;;;;;;;2.30;2.23;;;;;;;;;;6286172;28;20313;-70
2024/01/08 16:47:07;;;;;;;1.90;1.90;;;;;;;;;;6287525;28;20297;-71
2024/01/08 16:50:12;;;;;;;2.93;2.00;;;;;;;;;;6286780;28;20303;-70
2024/01/08 16:53:16;;;;;;;2.40;2.20;;;;;;;;;;6287107;28;20353;-70
2024/01/08 16:56:20;;;;;;;2.30;2.20;;;;;;;;;;6287256;28;20536;-70
2024/01/08 16:59:25;;;;;;;2.27;2.20;;;;;;;;;;6296575;28;20303;-71
2024/01/08 17:02:29;;;;;;;2.03;2.00;;;;;;;;;;6312080;28;20299;-71
2024/01/08 17:05:35;;;;;;;2.03;2.03;;;;;;;;;;6312698;28;20293;-71
2024/01/08 17:08:39;;;;;;;2.30;2.20;;;;;;;;;;6311754;28;20316;-71
2024/01/08 17:11:43;;;;;;;2.17;2.07;;;;;;;;;;6311877;28;20289;-71
2024/01/08 17:14:49;;;;;;;2.33;2.17;;;;;;;;;;6311551;28;20304;-71
2024/01/08 17:17:55;;;;;;;2.10;2.00;;;;;;;;;;6281496;28;20297;-71
2024/01/08 17:21:02;;;;;;;2.23;2.13;;;;;;;;;;6297427;28;20296;-72
2024/01/08 17:24:06;;;;;;;2.03;2.03;;;;;;;;;;6287523;28;20294;-72
2024/01/08 17:27:11;;;;;;;2.43;2.30;;;;;;;;;;6269779;28;20301;-69
2024/01/08 17:30:15;;;;;;;2.17;2.07;;;;;;;;;;6286762;28;20297;-69
2024/01/08 17:33:19;;;;;;;2.17;2.17;;;;;;;;;;6285918;28;20289;-70
2024/01/08 17:36:26;;;;;;;2.47;2.37;;;;;;;;;;6286460;28;20298;-71
2024/01/08 17:39:30;;;;;;;2.27;2.17;;;;;;;;;;6285675;28;20296;-72
2024/01/08 17:42:36;;;;;;;2.27;2.17;;;;;;;;;;6284239;28;20433;-70
2024/01/08 17:45:40;;;;;;;2.30;2.30;;;;;;;;;;6286166;28;20349;-70
2024/01/08 17:48:44;;;;;;;2.23;2.10;;;;;;;;;;6285451;28;20306;-70
2024/01/08 17:51:50;;;;;;;2.23;2.17;;;;;;;;;;6286193;28;20486;-71
2024/01/08 17:54:54;;;;;;;2.50;2.40;;;;;;;;;;6284656;28;20306;-71
2024/01/08 17:57:58;;;;;;;2.57;2.37;;;;;;;;;;6285701;28;20509;-70
2024/01/08 18:01:02;;;;;;;2.57;2.47;;;;;;;;;;6309144;28;20306;-71
2024/01/08 18:04:06;;;;;;;4.13;2.43;;;;;;;;;;6310066;28;20300;-71
2024/01/08 18:07:12;;;;;;;3.77;2.23;;;;;;;;;;6310767;28;20289;-71
2024/01/08 18:10:16;;;;;;;2.40;2.40;;;;;;;;;;6308812;28;20297;-70
2024/01/08 18:13:20;;;;;;;2.40;2.30;;;;;;;;;;6310104;28;20297;-70
2024/01/08 18:16:24;;;;;;;2.70;2.47;;;;;;;;;;6310221;28;20544;-72
2024/01/08 18:19:29;;;;;;;2.20;2.20;;;;;;;;;;6309080;28;20300;-72
2024/01/08 18:22:34;;;;;;;2.70;2.60;;;;;;;;;;6308996;28;20265;-71
2024/01/08 18:25:38;;;;;;;2.30;2.23;;;;;;;;;;6310510;28;20238;-72
2024/01/08 18:28:42;;;;;;;2.80;2.63;;;;;;;;;;6309833;28;20301;-71